Time;durP1;ratioP1;P1;durP2;ratioP2;P2;SDS_P1;SDS_P2;PMS_P1;PMS_P2;Temp;Humidity;BMP_temperature;BMP_pressure;BME280_temperature;BME280_humidity;BME280_pressure;Samples;Min_cycle;Max_cycle;Signal;HPM_P1;HPM_P2
2021/07/28 00:00:16;;;;;;;;;13.20;13.00;;;;;26.57;72.39;101478.72;5093254;28;8898;-76
2021/07/28 00:03:12;;;;;;;;;12.40;12.40;;;;;26.69;71.33;101461.16;5092768;28;8925;-76
2021/07/28 00:06:08;;;;;;;;;9.80;9.80;;;;;26.51;73.29;101461.34;5092208;28;8825;-76
2021/07/28 00:09:03;;;;;;;;;12.00;12.00;;;;;26.79;70.15;101465.09;5092448;28;8817;-76
2021/07/28 00:11:59;;;;;;;;;11.40;11.40;;;;;26.89;69.92;101449.94;5092582;28;8829;-76
2021/07/28 00:14:54;;;;;;;;;12.40;12.40;;;;;26.59;72.71;101450.72;5092192;28;8813;-76
2021/07/28 00:17:52;;;;;;;;;12.00;12.00;;;;;26.26;73.52;101453.09;5107047;28;8826;-76
2021/07/28 00:23:43;;;;;;;;;12.20;12.20;;;;;25.79;76.35;101446.25;5112038;28;8829;-76
2021/07/28 00:26:39;;;;;;;;;13.20;13.20;;;;;25.78;75.16;101444.63;5111509;28;8829;-77
2021/07/28 00:29:38;;;;;;;;;15.00;15.00;;;;;26.04;74.00;101446.81;5112705;28;8815;-76
2021/07/28 00:32:34;;;;;;;;;14.60;14.40;;;;;26.28;72.54;101446.97;5112558;28;8819;-77
2021/07/28 00:35:30;;;;;;;;;11.40;11.40;;;;;26.45;72.03;101451.69;5113100;28;8839;-76
2021/07/28 00:38:25;;;;;;;;;13.20;13.20;;;;;26.36;72.35;101447.72;5111970;28;8811;-76
2021/07/28 00:41:21;;;;;;;;;11.00;11.00;;;;;26.19;73.04;101447.47;5112367;28;8849;-76
2021/07/28 00:44:16;;;;;;;;;12.40;12.40;;;;;26.38;71.31;101437.56;5112186;28;8822;-76
2021/07/28 00:47:14;;;;;;;;;14.20;14.20;;;;;26.71;69.90;101438.84;5111558;28;8815;-76
2021/07/28 00:50:09;;;;;;;;;13.40;13.40;;;;;26.81;69.74;101428.56;5112442;28;8835;-76
2021/07/28 00:53:07;;;;;;;;;15.60;15.60;;;;;26.99;68.91;101431.16;5112099;28;8849;-77
2021/07/28 00:56:03;;;;;;;;;13.60;13.60;;;;;27.13;67.71;101433.84;5112280;28;8922;-76
2021/07/28 00:58:59;;;;;;;;;10.00;10.00;;;;;26.78;70.62;101435.91;5112815;28;8833;-76
2021/07/28 01:01:55;;;;;;;;;14.40;13.60;;;;;26.50;71.56;101430.56;5112475;28;8938;-76
2021/07/28 01:04:50;;;;;;;;;12.00;12.00;;;;;26.44;71.53;101420.91;5112278;28;8848;-76
2021/07/28 01:07:46;;;;;;;;;12.40;12.40;;;;;26.56;70.30;101415.50;5106949;28;8841;-76
2021/07/28 01:10:41;;;;;;;;;12.80;12.80;;;;;26.38;72.09;101422.56;5092747;28;8844;-76
2021/07/28 01:13:37;;;;;;;;;8.80;8.80;;;;;26.75;69.60;101427.44;5091353;28;8964;-75
2021/07/28 01:16:40;;;;;;;;;15.60;15.60;;;;;26.58;71.70;101417.91;5095080;28;8868;-76
2021/07/28 01:19:44;;;;;;;;;12.40;12.40;;;;;26.55;69.80;101416.75;5112478;28;8837;-75
2021/07/28 01:22:40;;;;;;;;;15.20;15.20;;;;;26.51;70.42;101415.16;5112876;28;8863;-76
2021/07/28 01:25:37;;;;;;;;;12.20;12.20;;;;;26.51;69.97;101409.50;5094042;28;8886;-75
2021/07/28 01:28:34;;;;;;;;;15.80;15.80;;;;;26.38;71.17;101411.22;5092595;28;8942;-76
2021/07/28 01:31:39;;;;;;;;;13.00;13.00;;;;;26.40;71.06;101426.66;5097904;28;8852;-76
2021/07/28 01:34:35;;;;;;;;;11.60;11.60;;;;;26.67;69.50;101423.06;5111845;28;8833;-75
2021/07/28 01:37:31;;;;;;;;;13.80;13.80;;;;;26.67;69.99;101415.38;5097178;28;8858;-76
2021/07/28 01:40:26;;;;;;;;;15.00;15.00;;;;;26.78;68.63;101423.75;5095731;28;8830;-76
2021/07/28 01:43:22;;;;;;;;;17.00;17.00;;;;;26.54;70.25;101425.69;5107180;28;8917;-75
2021/07/28 01:46:18;;;;;;;;;16.60;16.60;;;;;26.28;70.79;101429.97;5095137;28;8851;-75
2021/07/28 01:49:14;;;;;;;;;14.00;14.00;;;;;26.49;69.89;101423.28;5094847;28;8870;-76
2021/07/28 01:52:09;;;;;;;;;15.00;15.00;;;;;26.76;69.22;101423.34;5094715;28;8831;-76
2021/07/28 01:55:09;;;;;;;;;15.40;15.40;;;;;26.85;68.14;101420.81;5094813;28;8831;-76
2021/07/28 01:58:05;;;;;;;;;30.00;25.80;;;;;26.58;69.55;101424.38;5094446;28;8828;-76
2021/07/28 02:01:00;;;;;;;;;15.60;15.60;;;;;26.41;69.97;101419.75;5095034;28;8916;-76
2021/07/28 02:03:58;;;;;;;;;16.20;16.20;;;;;26.55;68.96;101427.28;5094837;28;8843;-76
2021/07/28 02:06:53;;;;;;;;;17.00;17.00;;;;;26.44;69.45;101427.38;5104058;28;8850;-77
2021/07/28 02:09:49;;;;;;;;;17.00;17.00;;;;;25.76;72.63;101436.56;5115018;28;8813;-76
2021/07/28 02:12:45;;;;;;;;;16.60;15.80;;;;;26.01;71.66;101438.34;5114693;28;9590;-76
2021/07/28 02:15:40;;;;;;;;;15.20;15.20;;;;;26.34;70.55;101431.13;5115163;28;8825;-76
2021/07/28 02:18:36;;;;;;;;;19.80;19.00;;;;;26.40;69.74;101434.34;5114676;28;8834;-75
2021/07/28 02:21:33;;;;;;;;;17.60;17.60;;;;;25.97;71.83;101427.03;5114631;28;8841;-77
2021/07/28 02:24:29;;;;;;;;;17.40;17.40;;;;;26.01;71.74;101438.34;5114439;28;8853;-75
2021/07/28 02:27:24;;;;;;;;;20.00;20.00;;;;;26.33;70.06;101444.50;5115604;28;8809;-75
2021/07/28 02:30:20;;;;;;;;;17.60;17.60;;;;;26.28;70.55;101447.78;5114647;28;8826;-75
2021/07/28 02:33:16;;;;;;;;;18.40;18.40;;;;;26.06;71.83;101452.06;5114462;28;8833;-75
2021/07/28 02:36:12;;;;;;;;;18.40;18.40;;;;;26.09;71.18;101456.91;5110153;28;8833;-75
2021/07/28 02:39:07;;;;;;;;;20.60;20.60;;;;;26.26;70.50;101452.28;5094614;28;8830;-75
2021/07/28 02:42:03;;;;;;;;;18.60;17.60;;;;;26.16;70.64;101448.34;5094743;28;8857;-77
2021/07/28 02:44:58;;;;;;;;;20.20;20.20;;;;;26.19;70.87;101444.66;5094589;28;8836;-76
2021/07/28 02:47:54;;;;;;;;;21.20;21.20;;;;;26.25;70.30;101442.16;5093219;28;8842;-75
2021/07/28 02:50:49;;;;;;;;;19.60;19.60;;;;;26.51;69.11;101437.84;5093693;28;8823;-76
2021/07/28 02:53:45;;;;;;;;;20.60;20.60;;;;;26.50;69.10;101445.56;5093856;28;8827;-76
2021/07/28 02:56:41;;;;;;;;;18.60;18.60;;;;;26.68;68.09;101431.16;5093624;28;8819;-75
2021/07/28 02:59:36;;;;;;;;;16.40;16.40;;;;;26.84;67.72;101439.88;5093773;28;8831;-76
2021/07/28 03:02:32;;;;;;;;;15.60;15.60;;;;;26.79;68.08;101446.03;5093281;28;8824;-76
2021/07/28 03:05:27;;;;;;;;;15.80;15.80;;;;;26.27;70.94;101443.34;5093294;28;8832;-76
2021/07/28 03:08:23;;;;;;;;;15.80;15.80;;;;;25.50;74.90;101451.28;5113762;28;8849;-76
2021/07/28 03:11:18;;;;;;;;;13.40;13.40;;;;;25.50;75.05;101443.59;5113733;28;9532;-76
2021/07/28 03:14:14;;;;;;;;;15.40;15.40;;;;;25.29;75.00;101440.09;5113410;28;8830;-77
2021/07/28 03:17:10;;;;;;;;;14.40;14.40;;;;;25.52;74.07;101435.47;5113591;28;8847;-76
2021/07/28 03:20:06;;;;;;;;;13.40;13.40;;;;;25.98;71.81;101445.66;5115882;28;8825;-75
2021/07/28 03:23:01;;;;;;;;;13.20;13.20;;;;;26.34;70.03;101451.78;5114773;28;8814;-75
2021/07/28 03:25:57;;;;;;;;;12.40;12.40;;;;;26.47;70.08;101452.09;5113975;28;8889;-75
2021/07/28 03:28:57;;;;;;;;;13.40;13.40;;;;;26.51;69.62;101452.03;5114751;28;8845;-75
2021/07/28 03:31:59;;;;;;;;;14.40;14.00;;;;;26.71;68.36;101449.38;5113886;28;8864;-75
2021/07/28 03:34:55;;;;;;;;;11.80;11.80;;;;;26.53;71.49;101460.91;5103533;28;8920;-75
2021/07/28 03:37:51;;;;;;;;;11.20;11.20;;;;;26.20;71.71;101459.63;5097455;28;8913;-75
2021/07/28 03:40:47;;;;;;;;;14.00;14.00;;;;;26.40;70.49;101457.03;5093865;28;9722;-76
2021/07/28 03:43:42;;;;;;;;;11.60;11.60;;;;;25.94;75.37;101463.94;5093290;28;8883;-75
2021/07/28 03:46:38;;;;;;;;;9.60;9.60;;;;;25.77;76.02;101460.84;5094150;28;8846;-75
2021/07/28 03:49:34;;;;;;;;;11.60;11.60;;;;;25.76;75.70;101462.06;5104112;28;8831;-75
2021/07/28 03:52:30;;;;;;;;;11.00;11.00;;;;;26.13;72.96;101469.00;5084828;28;9744;-75
2021/07/28 03:55:26;;;;;;;;;11.60;11.60;;;;;26.26;72.96;101464.44;5083794;28;8835;-76
2021/07/28 03:58:22;;;;;;;;;10.20;10.20;;;;;26.26;73.59;101467.25;5095277;28;8931;-75
2021/07/28 04:01:18;;;;;;;;;10.20;10.20;;;;;25.81;74.22;101459.97;5094076;28;8838;-75
2021/07/28 04:04:16;;;;;;;;;10.40;10.40;;;;;25.39;76.89;101453.41;5092205;28;8838;-75
2021/07/28 04:07:12;;;;;;;;;8.80;8.80;;;;;25.56;76.66;101454.50;5093205;28;8825;-75
2021/07/28 04:10:09;;;;;;;;;11.40;11.40;;;;;25.26;77.84;101455.91;5096752;28;9007;-75
2021/07/28 04:13:04;;;;;;;;;10.80;10.80;;;;;25.56;76.73;101454.50;5104628;28;8821;-75
2021/07/28 04:16:00;;;;;;;;;10.40;10.40;;;;;25.92;74.87;101449.38;5115589;28;8826;-75
2021/07/28 04:18:55;;;;;;;;;8.60;8.60;;;;;25.98;72.58;101451.31;5096769;28;8831;-75
2021/07/28 04:21:51;;;;;;;;;9.40;9.40;;;;;26.12;72.78;101447.56;5110620;28;8822;-76
2021/07/28 04:24:47;;;;;;;;;9.60;9.60;;;;;26.30;72.08;101451.03;5093015;28;8976;-76
2021/07/28 04:27:43;;;;;;;;;8.80;8.80;;;;;26.12;71.03;101450.38;5094058;28;8864;-75
2021/07/28 04:30:39;;;;;;;;;8.20;8.20;;;;;25.97;71.89;101444.03;5100247;28;8902;-75
2021/07/28 04:33:35;;;;;;;;;11.60;11.60;;;;;25.65;72.77;101452.00;5101665;28;8864;-75
2021/07/28 04:36:31;;;;;;;;;9.80;9.80;;;;;25.79;72.88;101443.41;5100768;28;8830;-76
2021/07/28 04:39:26;;;;;;;;;9.80;9.80;;;;;25.85;72.95;101452.28;5100619;28;8872;-75
2021/07/28 04:42:22;;;;;;;;;9.80;9.80;;;;;26.13;71.51;101442.69;5099521;28;9034;-76
2021/07/28 04:45:18;;;;;;;;;9.00;9.00;;;;;26.12;71.70;101443.91;5102070;28;8826;-76
2021/07/28 04:48:14;;;;;;;;;8.00;8.00;;;;;25.97;72.14;101443.25;5091631;28;8864;-76
2021/07/28 04:51:10;;;;;;;;;11.80;11.60;;;;;26.38;70.80;101442.41;5087583;28;8856;-76
2021/07/28 04:54:05;;;;;;;;;9.20;9.20;;;;;26.34;69.93;101436.78;5103011;28;8841;-75
2021/07/28 04:57:01;;;;;;;;;10.20;10.20;;;;;26.50;69.54;101439.09;5099514;28;9383;-77
2021/07/28 04:59:57;;;;;;;;;11.20;11.20;;;;;26.65;68.64;101437.69;5100985;28;8936;-76
2021/07/28 05:02:52;;;;;;;;;11.40;11.40;;;;;26.78;67.66;101437.94;5088219;28;8846;-77
2021/07/28 05:05:48;;;;;;;;;12.00;12.00;;;;;26.46;68.18;101438.34;5100141;28;8833;-76
2021/07/28 05:08:43;;;;;;;;;11.40;11.40;;;;;26.78;67.51;101432.28;5099012;28;8834;-76
2021/07/28 05:11:39;;;;;;;;;11.20;11.20;;;;;26.92;65.54;101431.28;5096085;28;8819;-75
2021/07/28 05:14:35;;;;;;;;;10.60;10.60;;;;;27.08;65.06;101434.34;5105708;28;8844;-76
2021/07/28 05:17:30;;;;;;;;;8.20;8.20;;;;;27.05;64.87;101438.00;5093082;28;8854;-75
2021/07/28 05:20:26;;;;;;;;;14.20;14.20;;;;;27.24;65.16;101437.34;5107107;28;9642;-76
2021/07/28 05:23:22;;;;;;;;;9.40;9.40;;;;;27.31;63.44;101431.56;5104874;28;8890;-78
2021/07/28 05:26:17;;;;;;;;;10.60;10.60;;;;;27.41;63.08;101436.25;5102516;28;8840;-77
2021/07/28 05:29:13;;;;;;;;;9.60;9.60;;;;;27.48;63.08;101426.81;5096637;28;8896;-76
2021/07/28 05:32:09;;;;;;;;;11.20;11.20;;;;;27.64;63.46;101429.81;5099501;28;8840;-76
2021/07/28 05:35:04;;;;;;;;;8.20;8.20;;;;;27.58;61.56;101425.84;5110341;28;8841;-77
2021/07/28 05:38:02;;;;;;;;;7.40;7.40;;;;;27.72;61.22;101432.56;5114152;28;8898;-77
2021/07/28 05:40:30;;;;;;;;;9.80;9.00;;;;;27.76;61.96;101427.59;5116702;28;8844;-77
2021/07/28 05:42:58;;;;;;;;;5.00;5.00;;;;;27.85;61.50;101434.38;5098761;28;8868;-76
2021/07/28 05:45:26;;;;;;;;;7.00;7.00;;;;;27.82;61.46;101421.00;5116233;28;8822;-76
2021/07/28 05:47:53;;;;;;;;;9.00;9.00;;;;;27.96;61.28;101425.63;5098688;28;8841;-75
2021/07/28 05:50:50;;;;;;;;;9.00;9.00;;;;;27.96;60.07;101423.59;5115297;28;8915;-75
2021/07/28 05:53:17;;;;;;;;;10.20;8.60;;;;;27.98;59.76;101420.31;5115379;28;8842;-76
2021/07/28 05:56:13;;;;;;;;;7.00;7.00;;;;;28.18;60.50;101417.53;5115060;28;9637;-75
2021/07/28 05:58:49;;;;;;;;;9.40;9.40;;;;;28.07;60.08;101422.63;5116333;28;8845;-74
2021/07/28 06:01:45;;;;;;;;;8.20;8.20;;;;;28.32;60.47;101420.13;5093176;28;8838;-75
2021/07/28 06:04:13;;;;;;;;;7.00;7.00;;;;;28.37;59.79;101413.94;5094573;28;8864;-75
2021/07/28 06:06:51;;;;;;;;;7.20;7.00;;;;;28.41;58.98;101411.81;5086163;28;8837;-75
2021/07/28 06:09:19;;;;;;;;;7.00;7.00;;;;;28.56;58.47;101415.16;5111336;28;8838;-75
2021/07/28 06:11:47;;;;;;;;;5.40;5.20;;;;;28.57;57.67;101408.22;5096054;28;8843;-74
2021/07/28 06:14:14;;;;;;;;;9.00;9.00;;;;;28.44;58.28;101407.28;5078023;28;8843;-75
2021/07/28 06:16:42;;;;;;;;;4.80;4.80;;;;;28.49;57.61;101395.41;5095302;28;8844;-76
2021/07/28 06:19:09;;;;;;;;;7.00;7.00;;;;;28.63;56.32;101388.63;5095398;28;8851;-74
2021/07/28 06:21:38;;;;;;;;;7.20;7.20;;;;;28.83;56.18;101394.25;5095388;28;8855;-74
2021/07/28 06:24:05;;;;;;;;;8.00;8.00;;;;;28.92;55.19;101398.16;5094944;28;8839;-75
2021/07/28 06:26:33;;;;;;;;;7.40;7.40;;;;;28.96;54.22;101403.78;5095238;28;8832;-75
2021/07/28 06:29:01;;;;;;;;;6.60;6.60;;;;;28.84;54.57;101396.69;5095460;28;8839;-75
2021/07/28 06:31:28;;;;;;;;;6.60;6.60;;;;;28.85;55.95;101394.66;5094225;28;8941;-74
2021/07/28 06:33:56;;;;;;;;;7.80;7.80;;;;;29.06;55.68;101403.53;5093979;28;8831;-75
2021/07/28 06:36:24;;;;;;;;;6.60;6.60;;;;;29.14;55.68;101398.50;5095286;28;8961;-75
2021/07/28 06:38:52;;;;;;;;;7.80;7.80;;;;;29.29;54.57;101396.06;5095035;28;8847;-76
2021/07/28 06:41:19;;;;;;;;;8.80;8.80;;;;;29.29;54.12;101393.22;5094931;28;8840;-75
2021/07/28 06:43:47;;;;;;;;;7.80;7.80;;;;;29.40;54.79;101392.97;5094946;28;8832;-75
2021/07/28 06:46:14;;;;;;;;;9.00;9.00;;;;;29.27;54.55;101392.88;5094712;28;8831;-75
2021/07/28 06:48:42;;;;;;;;;8.00;8.00;;;;;29.32;53.61;101401.69;5094689;28;8840;-76
2021/07/28 06:51:10;;;;;;;;;8.20;8.20;;;;;29.21;53.23;101392.59;5077259;28;8862;-75
2021/07/28 06:53:37;;;;;;;;;8.40;7.80;;;;;29.31;53.63;101396.47;5076784;28;8832;-75
2021/07/28 06:56:11;;;;;;;;;10.40;10.40;;;;;29.45;53.37;101393.25;5105044;28;8847;-74
2021/07/28 06:58:39;;;;;;;;;9.00;9.00;;;;;29.37;52.65;101389.00;5094650;28;8843;-75
2021/07/28 07:01:09;;;;;;;;;9.00;9.00;;;;;29.42;53.42;101391.28;5094699;28;8855;-75
2021/07/28 07:03:43;;;;;;;;;9.60;9.60;;;;;29.41;53.50;101380.34;5094838;28;8835;-76
2021/07/28 07:06:24;;;;;;;;;9.00;9.00;;;;;29.63;51.85;101382.25;5094610;28;8875;-76
2021/07/28 07:08:56;;;;;;;;;10.20;10.20;;;;;29.90;51.72;101389.66;5094376;28;8862;-76
2021/07/28 07:11:24;;;;;;;;;8.60;8.60;;;;;30.01;50.89;101390.19;5076315;28;8940;-75
2021/07/28 07:13:52;;;;;;;;;9.80;9.80;;;;;29.85;50.44;101396.75;5094261;28;8881;-77
2021/07/28 07:16:40;;;;;;;;;10.40;10.40;;;;;29.19;51.69;101397.94;5094228;28;8912;-77
2021/07/28 07:19:09;;;;;;;;;9.60;9.60;;;;;29.54;49.50;101395.50;5094296;28;8828;-76
2021/07/28 07:21:36;;;;;;;;;11.20;11.20;;;;;29.83;50.82;101395.59;5094402;28;8832;-76
2021/07/28 07:24:04;;;;;;;;;10.80;10.80;;;;;29.91;49.14;101394.16;5093966;28;9608;-76
2021/07/28 07:26:33;;;;;;;;;12.00;12.00;;;;;30.04;48.30;101385.63;5112195;28;8849;-76
2021/07/28 07:29:28;;;;;;;;;7.80;7.80;;;;;30.27;47.70;101391.13;5091883;28;8843;-75
2021/07/28 07:32:29;;;;;;;;;11.60;11.60;;;;;30.21;47.54;101387.22;5093511;28;8886;-77
2021/07/28 07:35:00;;;;;;;;;10.00;10.00;;;;;30.36;46.59;101385.56;5100323;28;8932;-77
2021/07/28 07:37:28;;;;;;;;;8.40;8.40;;;;;30.30;44.38;101383.75;5094491;28;8838;-76
2021/07/28 07:40:23;;;;;;;;;11.80;10.40;;;;;30.35;44.80;101386.81;5092182;28;8857;-75
2021/07/28 07:43:19;;;;;;;;;7.60;7.00;;;;;30.02;46.21;101379.59;5093001;28;8977;-77
2021/07/28 07:46:15;;;;;;;;;8.00;8.00;;;;;30.21;44.94;101386.41;5092692;28;8978;-78
2021/07/28 07:49:11;;;;;;;;;10.20;10.00;;;;;30.49;43.30;101394.19;5093142;28;8909;-76
2021/07/28 07:51:39;;;;;;;;;8.00;8.00;;;;;30.21;43.85;101389.28;5078021;28;9025;-76
2021/07/28 07:54:34;;;;;;;;;8.20;8.20;;;;;30.35;42.83;101394.59;5092543;28;9038;-74
2021/07/28 07:57:30;;;;;;;;;10.00;10.00;;;;;30.37;42.60;101383.53;5092315;28;8821;-73
2021/07/28 08:00:26;;;;;;;;;10.00;10.00;;;;;30.75;41.75;101386.53;5092011;28;8902;-74
2021/07/28 08:02:54;;;;;;;;;8.20;8.20;;;;;30.56;42.88;101385.41;5092894;28;8942;-73
2021/07/28 08:05:49;;;;;;;;;11.80;11.80;;;;;30.73;43.41;101380.44;5092018;28;8833;-72
2021/07/28 08:08:45;;;;;;;;;8.20;8.20;;;;;31.13;43.26;101385.72;5091552;28;8845;-73
2021/07/28 08:11:13;;;;;;;;;7.60;7.60;;;;;30.88;43.12;101383.66;5093192;28;8837;-73
2021/07/28 08:14:09;;;;;;;;;6.80;6.80;;;;;30.54;41.86;101393.63;5091420;28;8820;-74
2021/07/28 08:16:36;;;;;;;;;9.80;9.80;;;;;31.06;41.92;101391.69;5083014;28;9577;-74
2021/07/28 08:19:04;;;;;;;;;7.40;7.40;;;;;31.32;40.88;101381.06;5081005;28;8841;-74
2021/07/28 08:21:32;;;;;;;;;9.20;9.20;;;;;31.46;40.38;101383.47;5093466;28;8833;-73
2021/07/28 08:24:00;;;;;;;;;8.00;7.60;;;;;31.66;41.21;101386.84;5093159;28;8821;-74
2021/07/28 08:26:28;;;;;;;;;9.40;9.40;;;;;31.92;40.08;101386.81;5093534;28;8821;-73
2021/07/28 08:28:56;;;;;;;;;8.00;8.00;;;;;32.17;39.04;101388.78;5076062;28;8825;-72
2021/07/28 08:31:26;;;;;;;;;10.00;10.00;;;;;32.17;38.04;101389.56;5072602;28;8860;-75
2021/07/28 08:33:54;;;;;;;;;9.80;9.80;;;;;32.32;39.81;101390.69;5088845;28;8946;-75
2021/07/28 08:36:25;;;;;;;;;11.20;11.20;;;;;31.89;40.07;101384.88;5073323;28;8865;-73
2021/07/28 08:38:52;;;;;;;;;9.00;9.00;;;;;32.31;39.13;101391.13;5091335;28;8913;-73
2021/07/28 08:41:22;;;;;;;;;10.00;10.00;;;;;32.51;39.56;101397.34;5082765;28;8833;-74
2021/07/28 08:44:19;;;;;;;;;11.00;11.00;;;;;32.83;40.07;101392.47;5091923;28;8835;-74
2021/07/28 08:46:53;;;;;;;;;9.60;9.60;;;;;33.00;38.53;101393.84;5068056;28;8871;-73
2021/07/28 08:49:52;;;;;;;;;10.80;10.80;;;;;32.92;37.90;101396.19;5095168;28;8817;-74
2021/07/28 08:52:38;;;;;;;;;8.60;8.60;;;;;32.97;38.23;101391.91;5105122;28;8864;-75
2021/07/28 08:55:34;;;;;;;;;10.20;10.20;;;;;33.05;39.55;101395.28;5115827;28;8945;-75
2021/07/28 08:58:30;;;;;;;;;10.80;10.80;;;;;32.97;39.44;101388.22;5116200;28;8872;-74
2021/07/28 09:01:25;;;;;;;;;8.00;8.00;;;;;33.09;38.41;101378.75;5102576;28;8833;-74
2021/07/28 09:03:55;;;;;;;;;9.00;9.00;;;;;33.13;38.73;101385.16;5116877;28;8914;-75
2021/07/28 09:06:52;;;;;;;;;8.40;8.40;;;;;33.46;37.51;101380.50;5092887;28;8865;-75
2021/07/28 09:09:23;;;;;;;;;8.80;8.60;;;;;33.37;37.59;101374.75;5095312;28;8841;-72
2021/07/28 09:12:20;;;;;;;;;9.40;9.40;;;;;33.65;36.88;101384.19;5101476;28;8837;-73
2021/07/28 09:14:55;;;;;;;;;9.20;9.20;;;;;32.55;38.34;101374.31;5100093;28;8906;-75
2021/07/28 09:17:26;;;;;;;;;13.20;13.20;;;;;33.30;37.21;101374.22;5104955;28;8845;-74
2021/07/28 09:19:56;;;;;;;;;14.00;13.60;;;;;33.76;38.29;101375.16;5099615;28;8857;-73
2021/07/28 09:22:41;;;;;;;;;11.80;11.80;;;;;33.54;37.35;101369.53;5089404;28;8909;-74
2021/07/28 09:25:32;;;;;;;;;12.00;12.00;;;;;33.39;36.81;101375.06;5098654;28;8842;-74
2021/07/28 09:28:27;;;;;;;;;11.00;11.00;;;;;33.20;37.49;101364.78;5100322;28;8926;-74
2021/07/28 09:31:37;;;;;;;;;11.20;11.20;;;;;33.02;36.90;101364.72;5095173;28;8848;-75
2021/07/28 09:34:38;;;;;;;;;11.80;11.80;;;;;33.18;37.37;101347.25;5096836;28;8842;-74
2021/07/28 09:37:13;;;;;;;;;8.80;8.60;;;;;33.45;37.82;101346.56;5101115;28;8895;-73
2021/07/28 09:39:45;;;;;;;;;11.60;11.60;;;;;33.77;37.28;101350.91;5095405;28;8872;-73
2021/07/28 09:42:14;;;;;;;;;12.20;12.20;;;;;34.00;36.57;101343.78;5091308;28;8856;-73
2021/07/28 09:44:48;;;;;;;;;13.40;13.40;;;;;34.25;36.46;101328.28;5097175;28;8913;-74
2021/07/28 09:47:43;;;;;;;;;13.80;13.80;;;;;34.34;35.63;101322.53;5107293;28;8954;-73
2021/07/28 09:50:11;;;;;;;;;14.20;14.20;;;;;34.52;36.09;101316.00;5096730;28;8854;-74
2021/07/28 09:52:40;;;;;;;;;12.60;12.60;;;;;34.41;35.19;101327.97;5103982;28;8909;-74
2021/07/28 09:55:45;;;;;;;;;10.80;10.80;;;;;34.37;35.75;101317.91;5113690;28;8831;-73
2021/07/28 09:58:16;;;;;;;;;17.40;17.40;;;;;33.94;35.99;101320.66;5110169;28;8827;-73
2021/07/28 10:00:44;;;;;;;;;15.40;15.40;;;;;33.27;36.34;101312.88;5114979;28;8827;-74
2021/07/28 10:03:25;;;;;;;;;16.20;16.00;;;;;33.23;37.41;101314.31;5113814;28;8825;-74
2021/07/28 10:05:53;;;;;;;;;14.00;14.00;;;;;33.51;36.98;101306.59;5096807;28;8823;-75
2021/07/28 10:08:53;;;;;;;;;15.80;15.80;;;;;33.73;37.37;101319.50;5113747;28;8903;-73
2021/07/28 10:11:24;;;;;;;;;12.80;12.80;;;;;33.71;37.00;101312.66;5114743;28;8827;-72
2021/07/28 10:13:52;;;;;;;;;16.00;16.00;;;;;33.72;36.35;101305.66;5114177;27;9114;-74
2021/07/28 10:16:21;;;;;;;;;15.80;15.80;;;;;33.82;36.03;101303.59;5114256;28;8866;-73
2021/07/28 10:18:51;;;;;;;;;12.80;12.80;;;;;33.64;36.33;101305.16;5097360;28;8841;-76
2021/07/28 10:21:49;;;;;;;;;16.60;16.60;;;;;33.85;35.96;101309.16;5116689;28;8842;-74
2021/07/28 10:24:46;;;;;;;;;14.20;14.20;;;;;33.83;35.54;101313.81;5099962;28;8839;-74
2021/07/28 10:27:39;;;;;;;;;12.40;12.40;;;;;33.67;35.93;101315.72;5099585;28;8827;-74
2021/07/28 10:30:35;;;;;;;;;11.00;11.00;;;;;33.89;36.42;101306.13;5113604;28;8850;-73
2021/07/28 10:33:30;;;;;;;;;19.00;14.60;;;;;33.88;37.70;101311.06;5113286;28;8827;-73
2021/07/28 10:36:46;;;;;;;;;15.20;15.20;;;;;33.80;38.41;101309.78;5109611;28;9618;-73
2021/07/28 10:39:51;;;;;;;;;10.20;10.20;;;;;33.69;37.71;101307.41;5113373;28;8846;-73
2021/07/28 10:42:46;;;;;;;;;7.80;7.80;;;;;33.86;36.18;101309.97;5112276;28;8864;-74
2021/07/28 10:46:00;;;;;;;;;11.60;11.60;;;;;33.66;36.98;101298.94;5112149;28;8822;-75
2021/07/28 10:48:52;;;;;;;;;14.00;14.00;;;;;34.13;36.50;101300.59;5105830;28;8841;-73
2021/07/28 10:54:58;;;;;;;;;13.00;13.00;;;;;35.15;35.12;101291.16;5142477;27;1446227;-74
2021/07/28 10:57:44;;;;;;;;;17.60;17.00;;;;;35.15;34.40;101287.50;5146499;27;8848;-73
2021/07/28 11:00:39;;;;;;;;;9.00;9.00;;;;;35.11;35.07;101281.91;5172399;27;8849;-73
2021/07/28 11:03:36;;;;;;;;;12.00;12.00;;;;;35.25;32.20;101278.31;5159579;27;8933;-74
2021/07/28 11:06:46;;;;;;;;;9.80;9.80;;;;;35.21;32.77;101286.34;5150838;27;8903;-72
2021/07/28 11:09:18;;;;;;;;;11.40;11.40;;;;;35.38;31.53;101272.31;5151928;27;8834;-73
2021/07/28 11:11:47;;;;;;;;;12.40;12.40;;;;;35.27;31.85;101272.06;5134549;27;8819;-74
2021/07/28 11:14:44;;;;;;;;;9.80;9.80;;;;;35.02;31.23;101268.38;5150467;27;9588;-73
2021/07/28 11:17:43;;;;;;;;;11.00;9.80;;;;;35.41;31.25;101261.94;5150774;27;8827;-73
2021/07/28 11:20:39;;;;;;;;;9.60;9.60;;;;;34.49;32.09;101260.31;5137038;27;8847;-74
2021/07/28 11:23:25;;;;;;;;;10.40;10.40;;;;;34.89;32.38;101264.13;5151748;27;9583;-74
2021/07/28 11:26:25;;;;;;;;;10.80;10.80;;;;;35.59;31.64;101256.84;5150148;27;8890;-73
2021/07/28 11:29:21;;;;;;;;;7.00;7.00;;;;;35.85;32.38;101254.19;5136420;27;8827;-73
2021/07/28 11:31:52;;;;;;;;;13.20;13.20;;;;;36.09;30.11;101250.47;5155537;27;8927;-72
2021/07/28 11:34:57;;;;;;;;;12.80;12.80;;;;;36.22;30.86;101245.22;5156471;27;8839;-71
2021/07/28 11:37:25;;;;;;;;;11.00;11.00;;;;;36.60;30.16;101240.63;5131417;27;9628;-73
2021/07/28 11:40:21;;;;;;;;;9.00;9.00;;;;;36.87;30.45;101239.50;5155356;27;8832;-72
2021/07/28 11:42:48;;;;;;;;;8.20;8.20;;;;;36.97;30.04;101238.88;5171627;27;8853;-73
2021/07/28 11:45:36;;;;;;;;;6.40;4.00;;;;;36.89;28.99;101242.69;5132679;27;8843;-74
2021/07/28 11:48:34;;;;;;;;;10.60;10.60;;;;;37.09;28.58;101236.94;5132810;27;8915;-75
2021/07/28 11:51:06;;;;;;;;;10.60;10.60;;;;;36.60;30.03;101244.31;5156568;27;8837;-73
2021/07/28 11:54:11;;;;;;;;;6.60;6.60;;;;;36.39;29.82;101229.03;5168493;27;8877;-72
2021/07/28 11:56:54;;;;;;;;;9.40;9.40;;;;;35.77;30.27;101230.00;5143059;27;8858;-72
2021/07/28 11:59:49;;;;;;;;;9.20;9.20;;;;;35.29;31.49;101229.25;5136207;27;8862;-73
2021/07/28 12:02:45;;;;;;;;;8.20;8.20;;;;;35.70;30.81;101227.50;5150178;27;8819;-73
2021/07/28 12:05:12;;;;;;;;;9.20;9.20;;;;;35.81;30.34;101216.22;5142511;27;8928;-72
2021/07/28 12:07:40;;;;;;;;;7.20;7.20;;;;;35.96;30.83;101221.19;5136978;27;8827;-73
2021/07/28 12:10:35;;;;;;;;;10.00;10.00;;;;;36.01;31.22;101220.50;5135764;27;9060;-73
2021/07/28 12:13:46;;;;;;;;;11.40;11.40;;;;;35.70;29.43;101227.50;5143171;27;8835;-73
2021/07/28 12:16:52;;;;;;;;;11.80;11.80;;;;;35.76;30.10;101221.84;5155536;27;8857;-72
2021/07/28 12:19:28;;;;;;;;;11.00;11.00;;;;;36.42;30.78;101228.06;5158350;27;8821;-73
2021/07/28 12:22:01;;;;;;;;;8.00;8.00;;;;;36.44;29.60;101213.94;5150105;27;8815;-72
2021/07/28 12:24:34;;;;;;;;;7.20;7.20;;;;;36.70;28.36;101216.16;5137872;27;8846;-73
2021/07/28 12:27:35;;;;;;;;;7.00;7.00;;;;;36.57;28.38;101218.56;5136498;27;8866;-73
2021/07/28 12:30:22;;;;;;;;;9.20;9.20;;;;;36.53;27.89;101213.03;5136907;27;8848;-72
2021/07/28 12:33:01;;;;;;;;;7.20;7.20;;;;;36.22;28.35;101202.03;5136319;27;8843;-74
2021/07/28 12:35:57;;;;;;;;;9.40;9.40;;;;;35.78;29.82;101197.03;5135205;27;8858;-72
2021/07/28 12:38:31;;;;;;;;;14.60;14.60;;;;;35.88;30.60;101187.00;5136262;27;8851;-72
2021/07/28 12:41:05;;;;;;;;;6.20;6.20;;;;;36.21;29.28;101191.81;5135662;27;8819;-73
2021/07/28 12:43:37;;;;;;;;;10.60;10.60;;;;;36.45;29.08;101191.69;5142498;27;9001;-72
2021/07/28 12:46:09;;;;;;;;;10.00;9.80;;;;;36.78;29.65;101174.09;5148031;27;8850;-71
2021/07/28 12:48:39;;;;;;;;;8.40;8.40;;;;;36.58;29.85;101182.72;5153631;27;8811;-71
2021/07/28 12:51:09;;;;;;;;;10.60;10.60;;;;;36.88;29.52;101174.78;5137560;27;8820;-72
2021/07/28 12:53:51;;;;;;;;;9.20;9.20;;;;;37.10;28.74;101182.94;5147457;27;8847;-72
2021/07/28 12:56:46;;;;;;;;;8.00;8.00;;;;;37.43;28.11;101171.06;5140326;27;8926;-73
2021/07/28 12:59:14;;;;;;;;;7.20;7.20;;;;;37.74;26.50;101168.22;5156444;27;8924;-73
2021/07/28 13:02:09;;;;;;;;;13.00;12.60;;;;;37.72;27.54;101170.81;5141517;27;8841;-73